sensor_id;sensor_type;location;lat;lon;timestamp;P1;durP1;ratioP1;P2;durP2;ratioP2
10414;SDS011;5254;47.696;9.138;2022-07-10T00:00:40;4.30;;;2.67;;
10414;SDS011;5254;47.696;9.138;2022-07-10T00:03:06;5.20;;;2.83;;
10414;SDS011;5254;47.696;9.138;2022-07-10T00:05:32;4.38;;;2.70;;
10414;SDS011;5254;47.696;9.138;2022-07-10T00:08:01;4.15;;;2.65;;
10414;SDS011;5254;47.696;9.138;2022-07-10T00:10:27;4.25;;;2.55;;
10414;SDS011;5254;47.696;9.138;2022-07-10T00:12:54;3.70;;;2.70;;
10414;SDS011;5254;47.696;9.138;2022-07-10T00:15:20;4.75;;;2.85;;
10414;SDS011;5254;47.696;9.138;2022-07-10T00:17:46;5.30;;;3.20;;
10414;SDS011;5254;47.696;9.138;2022-07-10T00:20:13;5.35;;;3.00;;
10414;SDS011;5254;47.696;9.138;2022-07-10T00:22:39;4.55;;;2.90;;
10414;SDS011;5254;47.696;9.138;2022-07-10T00:25:06;7.75;;;3.22;;
10414;SDS011;5254;47.696;9.138;2022-07-10T00:27:34;4.03;;;2.90;;
10414;SDS011;5254;47.696;9.138;2022-07-10T00:30:00;4.22;;;2.95;;
10414;SDS011;5254;47.696;9.138;2022-07-10T00:32:26;5.07;;;2.90;;
10414;SDS011;5254;47.696;9.138;2022-07-10T00:34:52;6.43;;;2.97;;
10414;SDS011;5254;47.696;9.138;2022-07-10T00:37:18;4.57;;;3.20;;
10414;SDS011;5254;47.696;9.138;2022-07-10T00:39:46;5.57;;;3.00;;
10414;SDS011;5254;47.696;9.138;2022-07-10T00:42:13;4.60;;;2.80;;
10414;SDS011;5254;47.696;9.138;2022-07-10T00:44:43;3.97;;;2.60;;
10414;SDS011;5254;47.696;9.138;2022-07-10T00:47:09;5.10;;;2.80;;
10414;SDS011;5254;47.696;9.138;2022-07-10T00:49:36;4.47;;;2.70;;
10414;SDS011;5254;47.696;9.138;2022-07-10T00:52:04;5.18;;;3.10;;
10414;SDS011;5254;47.696;9.138;2022-07-10T00:54:32;4.70;;;3.40;;
10414;SDS011;5254;47.696;9.138;2022-07-10T00:56:59;4.75;;;3.30;;
10414;SDS011;5254;47.696;9.138;2022-07-10T00:59:26;5.10;;;3.22;;
10414;SDS011;5254;47.696;9.138;2022-07-10T01:01:53;4.55;;;3.10;;
10414;SDS011;5254;47.696;9.138;2022-07-10T01:04:19;5.18;;;3.35;;
10414;SDS011;5254;47.696;9.138;2022-07-10T01:06:45;5.63;;;3.10;;
10414;SDS011;5254;47.696;9.138;2022-07-10T01:09:11;4.43;;;3.17;;
10414;SDS011;5254;47.696;9.138;2022-07-10T01:11:37;4.45;;;2.90;;
10414;SDS011;5254;47.696;9.138;2022-07-10T01:14:03;5.05;;;3.30;;
10414;SDS011;5254;47.696;9.138;2022-07-10T01:16:31;4.60;;;3.20;;
10414;SDS011;5254;47.696;9.138;2022-07-10T01:18:57;5.18;;;3.45;;
10414;SDS011;5254;47.696;9.138;2022-07-10T01:21:26;5.55;;;3.25;;
10414;SDS011;5254;47.696;9.138;2022-07-10T01:23:56;5.20;;;3.10;;
10414;SDS011;5254;47.696;9.138;2022-07-10T01:26:22;5.03;;;3.50;;
10414;SDS011;5254;47.696;9.138;2022-07-10T01:28:52;7.20;;;3.55;;
10414;SDS011;5254;47.696;9.138;2022-07-10T01:31:19;5.15;;;2.95;;
10414;SDS011;5254;47.696;9.138;2022-07-10T01:33:49;5.32;;;3.00;;
10414;SDS011;5254;47.696;9.138;2022-07-10T01:36:16;4.53;;;2.92;;
10414;SDS011;5254;47.696;9.138;2022-07-10T01:38:42;5.65;;;3.28;;
10414;SDS011;5254;47.696;9.138;2022-07-10T01:41:08;5.45;;;3.05;;
10414;SDS011;5254;47.696;9.138;2022-07-10T01:43:37;4.88;;;2.97;;
10414;SDS011;5254;47.696;9.138;2022-07-10T01:46:07;4.53;;;3.20;;
10414;SDS011;5254;47.696;9.138;2022-07-10T01:48:33;5.35;;;3.25;;
10414;SDS011;5254;47.696;9.138;2022-07-10T01:50:58;5.05;;;3.33;;
10414;SDS011;5254;47.696;9.138;2022-07-10T01:53:24;5.13;;;3.08;;
10414;SDS011;5254;47.696;9.138;2022-07-10T01:55:50;5.40;;;3.25;;
10414;SDS011;5254;47.696;9.138;2022-07-10T01:58:16;5.72;;;3.40;;
10414;SDS011;5254;47.696;9.138;2022-07-10T02:00:41;5.13;;;3.45;;
10414;SDS011;5254;47.696;9.138;2022-07-10T02:03:07;7.13;;;3.97;;
10414;SDS011;5254;47.696;9.138;2022-07-10T02:05:51;4.60;;;3.20;;
10414;SDS011;5254;47.696;9.138;2022-07-10T02:08:17;5.38;;;3.47;;
10414;SDS011;5254;47.696;9.138;2022-07-10T02:10:42;5.60;;;3.53;;
10414;SDS011;5254;47.696;9.138;2022-07-10T02:13:10;6.22;;;3.70;;
10414;SDS011;5254;47.696;9.138;2022-07-10T02:15:35;6.68;;;3.60;;
10414;SDS011;5254;47.696;9.138;2022-07-10T02:18:01;4.88;;;3.42;;
10414;SDS011;5254;47.696;9.138;2022-07-10T02:20:27;4.72;;;3.42;;
10414;SDS011;5254;47.696;9.138;2022-07-10T02:22:52;5.22;;;3.70;;
10414;SDS011;5254;47.696;9.138;2022-07-10T02:25:18;5.22;;;3.50;;
10414;SDS011;5254;47.696;9.138;2022-07-10T02:27:44;6.68;;;3.42;;
10414;SDS011;5254;47.696;9.138;2022-07-10T02:30:09;6.43;;;3.78;;
10414;SDS011;5254;47.696;9.138;2022-07-10T02:32:36;5.45;;;3.30;;
10414;SDS011;5254;47.696;9.138;2022-07-10T02:35:02;5.25;;;3.40;;
10414;SDS011;5254;47.696;9.138;2022-07-10T02:37:28;5.63;;;3.40;;
10414;SDS011;5254;47.696;9.138;2022-07-10T02:39:54;5.20;;;3.40;;
10414;SDS011;5254;47.696;9.138;2022-07-10T02:42:20;4.70;;;3.28;;
10414;SDS011;5254;47.696;9.138;2022-07-10T02:44:46;5.82;;;3.45;;
10414;SDS011;5254;47.696;9.138;2022-07-10T02:47:12;4.18;;;3.20;;
10414;SDS011;5254;47.696;9.138;2022-07-10T02:49:37;4.95;;;3.42;;
10414;SDS011;5254;47.696;9.138;2022-07-10T02:52:03;5.55;;;3.70;;
10414;SDS011;5254;47.696;9.138;2022-07-10T02:54:30;4.75;;;3.30;;
10414;SDS011;5254;47.696;9.138;2022-07-10T02:56:55;5.30;;;3.47;;
10414;SDS011;5254;47.696;9.138;2022-07-10T02:59:21;4.72;;;3.50;;
10414;SDS011;5254;47.696;9.138;2022-07-10T03:01:47;5.70;;;3.28;;
10414;SDS011;5254;47.696;9.138;2022-07-10T03:04:12;4.65;;;3.45;;
10414;SDS011;5254;47.696;9.138;2022-07-10T03:06:38;4.90;;;3.65;;
10414;SDS011;5254;47.696;9.138;2022-07-10T03:09:04;4.95;;;3.40;;
10414;SDS011;5254;47.696;9.138;2022-07-10T03:11:29;4.90;;;3.33;;
10414;SDS011;5254;47.696;9.138;2022-07-10T03:13:55;5.03;;;3.47;;
10414;SDS011;5254;47.696;9.138;2022-07-10T03:16:21;6.22;;;3.75;;
10414;SDS011;5254;47.696;9.138;2022-07-10T03:18:46;4.70;;;3.53;;
10414;SDS011;5254;47.696;9.138;2022-07-10T03:21:12;5.10;;;3.45;;
10414;SDS011;5254;47.696;9.138;2022-07-10T03:23:38;5.20;;;3.70;;
10414;SDS011;5254;47.696;9.138;2022-07-10T03:26:06;5.13;;;3.58;;
10414;SDS011;5254;47.696;9.138;2022-07-10T03:28:33;7.22;;;3.97;;
10414;SDS011;5254;47.696;9.138;2022-07-10T03:30:58;4.65;;;3.50;;
10414;SDS011;5254;47.696;9.138;2022-07-10T03:33:24;6.15;;;3.80;;
10414;SDS011;5254;47.696;9.138;2022-07-10T03:35:50;6.47;;;4.00;;
10414;SDS011;5254;47.696;9.138;2022-07-10T03:38:16;5.20;;;3.63;;
10414;SDS011;5254;47.696;9.138;2022-07-10T03:40:41;4.53;;;3.30;;
10414;SDS011;5254;47.696;9.138;2022-07-10T03:43:07;5.07;;;3.70;;
10414;SDS011;5254;47.696;9.138;2022-07-10T03:45:33;6.55;;;3.63;;
10414;SDS011;5254;47.696;9.138;2022-07-10T03:47:59;6.00;;;4.03;;
10414;SDS011;5254;47.696;9.138;2022-07-10T03:50:24;4.72;;;3.72;;
10414;SDS011;5254;47.696;9.138;2022-07-10T03:52:50;5.45;;;3.63;;
10414;SDS011;5254;47.696;9.138;2022-07-10T03:55:16;6.60;;;5.32;;
10414;SDS011;5254;47.696;9.138;2022-07-10T03:57:41;4.47;;;3.55;;
10414;SDS011;5254;47.696;9.138;2022-07-10T04:00:29;5.03;;;3.85;;
10414;SDS011;5254;47.696;9.138;2022-07-10T04:03:00;4.78;;;3.55;;
10414;SDS011;5254;47.696;9.138;2022-07-10T04:05:27;5.15;;;3.40;;
10414;SDS011;5254;47.696;9.138;2022-07-10T04:07:53;5.53;;;3.80;;
10414;SDS011;5254;47.696;9.138;2022-07-10T04:10:22;6.80;;;3.90;;
10414;SDS011;5254;47.696;9.138;2022-07-10T04:12:48;4.97;;;3.63;;
10414;SDS011;5254;47.696;9.138;2022-07-10T04:15:14;5.00;;;3.47;;
10414;SDS011;5254;47.696;9.138;2022-07-10T04:17:41;6.03;;;4.10;;
10414;SDS011;5254;47.696;9.138;2022-07-10T04:20:07;4.60;;;3.80;;
10414;SDS011;5254;47.696;9.138;2022-07-10T04:22:33;4.88;;;3.90;;
10414;SDS011;5254;47.696;9.138;2022-07-10T04:24:59;5.10;;;3.90;;
10414;SDS011;5254;47.696;9.138;2022-07-10T04:27:24;5.55;;;3.80;;
10414;SDS011;5254;47.696;9.138;2022-07-10T04:29:50;6.75;;;3.67;;
10414;SDS011;5254;47.696;9.138;2022-07-10T04:32:16;5.05;;;3.60;;
10414;SDS011;5254;47.696;9.138;2022-07-10T04:34:42;4.90;;;3.70;;
10414;SDS011;5254;47.696;9.138;2022-07-10T04:37:08;5.43;;;3.53;;
10414;SDS011;5254;47.696;9.138;2022-07-10T04:39:34;5.68;;;3.63;;
10414;SDS011;5254;47.696;9.138;2022-07-10T04:42:01;5.35;;;3.40;;
10414;SDS011;5254;47.696;9.138;2022-07-10T04:44:28;6.03;;;3.40;;
10414;SDS011;5254;47.696;9.138;2022-07-10T04:46:54;5.40;;;3.60;;
10414;SDS011;5254;47.696;9.138;2022-07-10T04:49:20;4.93;;;3.42;;
10414;SDS011;5254;47.696;9.138;2022-07-10T04:51:46;4.30;;;3.58;;
10414;SDS011;5254;47.696;9.138;2022-07-10T04:54:11;4.50;;;3.40;;
10414;SDS011;5254;47.696;9.138;2022-07-10T04:56:37;6.20;;;3.50;;
10414;SDS011;5254;47.696;9.138;2022-07-10T04:59:03;5.78;;;3.55;;
10414;SDS011;5254;47.696;9.138;2022-07-10T05:01:29;5.93;;;3.53;;
10414;SDS011;5254;47.696;9.138;2022-07-10T05:03:55;4.45;;;3.35;;
10414;SDS011;5254;47.696;9.138;2022-07-10T05:06:20;6.07;;;3.50;;
10414;SDS011;5254;47.696;9.138;2022-07-10T05:08:46;4.85;;;3.53;;
10414;SDS011;5254;47.696;9.138;2022-07-10T05:11:12;4.75;;;3.30;;
10414;SDS011;5254;47.696;9.138;2022-07-10T05:13:38;4.72;;;3.45;;
10414;SDS011;5254;47.696;9.138;2022-07-10T05:16:04;4.38;;;3.10;;
10414;SDS011;5254;47.696;9.138;2022-07-10T05:18:30;5.13;;;3.70;;
10414;SDS011;5254;47.696;9.138;2022-07-10T05:20:56;5.35;;;3.53;;
10414;SDS011;5254;47.696;9.138;2022-07-10T05:23:22;5.00;;;3.70;;
10414;SDS011;5254;47.696;9.138;2022-07-10T05:25:49;4.95;;;3.50;;
10414;SDS011;5254;47.696;9.138;2022-07-10T05:28:14;6.80;;;3.63;;
10414;SDS011;5254;47.696;9.138;2022-07-10T05:30:40;4.85;;;3.63;;
10414;SDS011;5254;47.696;9.138;2022-07-10T05:33:07;6.82;;;3.60;;
10414;SDS011;5254;47.696;9.138;2022-07-10T05:35:33;5.60;;;3.63;;
10414;SDS011;5254;47.696;9.138;2022-07-10T05:37:59;5.03;;;3.38;;
10414;SDS011;5254;47.696;9.138;2022-07-10T05:40:25;5.20;;;3.78;;
10414;SDS011;5254;47.696;9.138;2022-07-10T05:42:51;4.93;;;3.50;;
10414;SDS011;5254;47.696;9.138;2022-07-10T05:45:17;6.25;;;3.90;;
10414;SDS011;5254;47.696;9.138;2022-07-10T05:47:43;5.43;;;3.13;;
10414;SDS011;5254;47.696;9.138;2022-07-10T05:50:09;6.90;;;3.72;;
10414;SDS011;5254;47.696;9.138;2022-07-10T05:52:36;4.72;;;3.20;;
10414;SDS011;5254;47.696;9.138;2022-07-10T05:55:03;4.30;;;2.83;;
10414;SDS011;5254;47.696;9.138;2022-07-10T05:57:29;4.70;;;3.28;;
10414;SDS011;5254;47.696;9.138;2022-07-10T05:59:58;4.70;;;3.53;;
10414;SDS011;5254;47.696;9.138;2022-07-10T06:02:24;5.03;;;3.60;;
10414;SDS011;5254;47.696;9.138;2022-07-10T06:04:50;5.00;;;3.45;;
10414;SDS011;5254;47.696;9.138;2022-07-10T06:07:16;5.20;;;3.40;;
10414;SDS011;5254;47.696;9.138;2022-07-10T06:09:42;4.57;;;3.50;;
10414;SDS011;5254;47.696;9.138;2022-07-10T06:12:07;4.60;;;3.10;;
10414;SDS011;5254;47.696;9.138;2022-07-10T06:14:33;5.97;;;3.50;;
10414;SDS011;5254;47.696;9.138;2022-07-10T06:16:59;4.90;;;3.35;;
10414;SDS011;5254;47.696;9.138;2022-07-10T06:19:25;6.05;;;3.20;;
10414;SDS011;5254;47.696;9.138;2022-07-10T06:21:51;5.60;;;3.60;;
10414;SDS011;5254;47.696;9.138;2022-07-10T06:24:37;4.55;;;3.28;;
10414;SDS011;5254;47.696;9.138;2022-07-10T06:27:03;5.15;;;3.55;;
10414;SDS011;5254;47.696;9.138;2022-07-10T06:29:29;6.22;;;3.70;;
10414;SDS011;5254;47.696;9.138;2022-07-10T06:31:55;5.15;;;3.13;;
10414;SDS011;5254;47.696;9.138;2022-07-10T06:34:21;5.65;;;3.42;;
10414;SDS011;5254;47.696;9.138;2022-07-10T06:36:46;5.00;;;3.45;;
10414;SDS011;5254;47.696;9.138;2022-07-10T06:39:12;4.78;;;3.30;;
10414;SDS011;5254;47.696;9.138;2022-07-10T06:41:37;5.38;;;3.53;;
10414;SDS011;5254;47.696;9.138;2022-07-10T06:44:04;5.35;;;3.70;;
10414;SDS011;5254;47.696;9.138;2022-07-10T06:46:31;6.05;;;3.72;;
10414;SDS011;5254;47.696;9.138;2022-07-10T06:48:57;5.65;;;3.75;;
10414;SDS011;5254;47.696;9.138;2022-07-10T06:51:24;6.22;;;3.70;;
10414;SDS011;5254;47.696;9.138;2022-07-10T06:53:50;5.60;;;3.92;;
10414;SDS011;5254;47.696;9.138;2022-07-10T06:56:16;5.40;;;3.58;;
10414;SDS011;5254;47.696;9.138;2022-07-10T06:58:42;6.70;;;4.72;;
10414;SDS011;5254;47.696;9.138;2022-07-10T07:01:07;5.60;;;4.22;;
10414;SDS011;5254;47.696;9.138;2022-07-10T07:03:34;6.50;;;3.90;;
10414;SDS011;5254;47.696;9.138;2022-07-10T07:05:59;6.13;;;4.07;;
10414;SDS011;5254;47.696;9.138;2022-07-10T07:08:25;7.72;;;4.97;;
10414;SDS011;5254;47.696;9.138;2022-07-10T07:10:51;5.55;;;3.80;;
10414;SDS011;5254;47.696;9.138;2022-07-10T07:13:16;6.25;;;3.78;;
10414;SDS011;5254;47.696;9.138;2022-07-10T07:15:42;7.15;;;5.10;;
10414;SDS011;5254;47.696;9.138;2022-07-10T07:18:14;7.35;;;4.55;;
10414;SDS011;5254;47.696;9.138;2022-07-10T07:20:41;6.57;;;3.90;;
10414;SDS011;5254;47.696;9.138;2022-07-10T07:23:26;6.93;;;4.22;;
10414;SDS011;5254;47.696;9.138;2022-07-10T07:25:52;6.13;;;4.38;;
10414;SDS011;5254;47.696;9.138;2022-07-10T07:28:18;6.32;;;4.53;;
10414;SDS011;5254;47.696;9.138;2022-07-10T07:30:48;6.53;;;4.10;;
10414;SDS011;5254;47.696;9.138;2022-07-10T07:33:14;5.82;;;4.30;;
10414;SDS011;5254;47.696;9.138;2022-07-10T07:35:41;5.75;;;4.15;;
10414;SDS011;5254;47.696;9.138;2022-07-10T07:38:06;5.93;;;4.03;;
10414;SDS011;5254;47.696;9.138;2022-07-10T07:40:32;4.72;;;3.60;;
10414;SDS011;5254;47.696;9.138;2022-07-10T07:42:59;7.20;;;5.43;;
10414;SDS011;5254;47.696;9.138;2022-07-10T07:45:25;6.22;;;3.92;;
10414;SDS011;5254;47.696;9.138;2022-07-10T07:47:52;6.93;;;3.47;;
10414;SDS011;5254;47.696;9.138;2022-07-10T07:50:21;5.50;;;3.95;;
10414;SDS011;5254;47.696;9.138;2022-07-10T07:53:05;4.55;;;3.67;;
10414;SDS011;5254;47.696;9.138;2022-07-10T07:55:31;6.90;;;4.43;;
10414;SDS011;5254;47.696;9.138;2022-07-10T07:57:58;6.05;;;4.30;;
10414;SDS011;5254;47.696;9.138;2022-07-10T08:00:25;6.22;;;4.93;;
10414;SDS011;5254;47.696;9.138;2022-07-10T08:02:53;5.40;;;4.05;;
10414;SDS011;5254;47.696;9.138;2022-07-10T08:05:20;6.35;;;4.88;;
10414;SDS011;5254;47.696;9.138;2022-07-10T08:07:55;6.15;;;4.30;;
10414;SDS011;5254;47.696;9.138;2022-07-10T08:10:24;5.88;;;3.88;;
10414;SDS011;5254;47.696;9.138;2022-07-10T08:12:51;7.10;;;5.15;;
10414;SDS011;5254;47.696;9.138;2022-07-10T08:15:18;7.20;;;4.10;;
10414;SDS011;5254;47.696;9.138;2022-07-10T08:17:48;5.85;;;4.05;;
10414;SDS011;5254;47.696;9.138;2022-07-10T08:20:15;5.40;;;3.90;;
10414;SDS011;5254;47.696;9.138;2022-07-10T08:22:42;4.80;;;3.50;;
10414;SDS011;5254;47.696;9.138;2022-07-10T08:25:08;6.75;;;4.65;;
10414;SDS011;5254;47.696;9.138;2022-07-10T08:27:35;5.05;;;4.32;;
10414;SDS011;5254;47.696;9.138;2022-07-10T08:30:01;5.70;;;4.18;;
10414;SDS011;5254;47.696;9.138;2022-07-10T08:32:26;5.78;;;3.70;;
10414;SDS011;5254;47.696;9.138;2022-07-10T08:34:52;6.22;;;4.15;;
10414;SDS011;5254;47.696;9.138;2022-07-10T08:37:18;5.00;;;3.78;;
10414;SDS011;5254;47.696;9.138;2022-07-10T08:39:45;5.20;;;4.10;;
10414;SDS011;5254;47.696;9.138;2022-07-10T08:42:11;6.15;;;4.13;;
10414;SDS011;5254;47.696;9.138;2022-07-10T08:44:37;6.80;;;4.40;;
10414;SDS011;5254;47.696;9.138;2022-07-10T08:47:04;7.45;;;5.40;;
10414;SDS011;5254;47.696;9.138;2022-07-10T08:49:30;5.72;;;3.85;;
10414;SDS011;5254;47.696;9.138;2022-07-10T08:54:25;5.45;;;3.63;;
10414;SDS011;5254;47.696;9.138;2022-07-10T08:56:53;4.95;;;3.13;;
10414;SDS011;5254;47.696;9.138;2022-07-10T08:59:25;5.15;;;3.45;;
10414;SDS011;5254;47.696;9.138;2022-07-10T09:01:52;5.45;;;3.90;;
10414;SDS011;5254;47.696;9.138;2022-07-10T09:04:22;6.18;;;3.20;;
10414;SDS011;5254;47.696;9.138;2022-07-10T09:06:48;4.80;;;3.42;;
10414;SDS011;5254;47.696;9.138;2022-07-10T09:09:16;5.38;;;3.47;;
10414;SDS011;5254;47.696;9.138;2022-07-10T09:11:42;4.35;;;3.15;;
10414;SDS011;5254;47.696;9.138;2022-07-10T09:14:09;5.35;;;3.55;;
10414;SDS011;5254;47.696;9.138;2022-07-10T09:16:40;5.22;;;3.42;;
10414;SDS011;5254;47.696;9.138;2022-07-10T09:21:42;4.70;;;3.38;;
10414;SDS011;5254;47.696;9.138;2022-07-10T09:24:09;5.63;;;3.80;;
10414;SDS011;5254;47.696;9.138;2022-07-10T09:26:35;6.28;;;4.57;;
10414;SDS011;5254;47.696;9.138;2022-07-10T09:29:09;4.18;;;3.30;;
10414;SDS011;5254;47.696;9.138;2022-07-10T09:31:51;5.22;;;3.42;;
10414;SDS011;5254;47.696;9.138;2022-07-10T09:34:34;5.90;;;3.38;;
10414;SDS011;5254;47.696;9.138;2022-07-10T09:39:49;6.47;;;4.35;;
10414;SDS011;5254;47.696;9.138;2022-07-10T09:47:42;4.97;;;3.33;;
10414;SDS011;5254;47.696;9.138;2022-07-10T09:52:56;5.55;;;3.67;;
10414;SDS011;5254;47.696;9.138;2022-07-10T09:55:25;5.90;;;4.40;;
10414;SDS011;5254;47.696;9.138;2022-07-10T09:57:58;6.28;;;3.60;;
10414;SDS011;5254;47.696;9.138;2022-07-10T10:00:28;6.75;;;3.97;;
10414;SDS011;5254;47.696;9.138;2022-07-10T10:03:05;6.75;;;4.80;;
10414;SDS011;5254;47.696;9.138;2022-07-10T10:11:15;4.60;;;3.38;;
10414;SDS011;5254;47.696;9.138;2022-07-10T10:13:45;6.25;;;3.90;;
10414;SDS011;5254;47.696;9.138;2022-07-10T10:16:13;5.15;;;3.70;;
10414;SDS011;5254;47.696;9.138;2022-07-10T10:18:39;5.97;;;4.32;;
10414;SDS011;5254;47.696;9.138;2022-07-10T10:21:27;5.85;;;3.45;;
10414;SDS011;5254;47.696;9.138;2022-07-10T10:23:53;5.65;;;3.40;;
10414;SDS011;5254;47.696;9.138;2022-07-10T10:26:21;6.07;;;3.47;;
10414;SDS011;5254;47.696;9.138;2022-07-10T10:28:48;5.63;;;3.85;;
10414;SDS011;5254;47.696;9.138;2022-07-10T10:31:17;4.80;;;3.38;;
10414;SDS011;5254;47.696;9.138;2022-07-10T10:33:45;4.75;;;3.25;;
10414;SDS011;5254;47.696;9.138;2022-07-10T10:36:13;5.65;;;3.40;;
10414;SDS011;5254;47.696;9.138;2022-07-10T10:39:00;5.82;;;3.90;;
10414;SDS011;5254;47.696;9.138;2022-07-10T10:41:28;5.32;;;3.75;;
10414;SDS011;5254;47.696;9.138;2022-07-10T10:49:20;4.75;;;3.40;;
10414;SDS011;5254;47.696;9.138;2022-07-10T10:51:57;4.50;;;3.28;;
10414;SDS011;5254;47.696;9.138;2022-07-10T10:54:23;4.85;;;3.28;;
10414;SDS011;5254;47.696;9.138;2022-07-10T10:59:48;4.45;;;3.17;;
10414;SDS011;5254;47.696;9.138;2022-07-10T11:04:50;5.03;;;3.05;;
10414;SDS011;5254;47.696;9.138;2022-07-10T11:10:29;4.82;;;3.53;;
10414;SDS011;5254;47.696;9.138;2022-07-10T11:13:11;4.25;;;3.30;;
10414;SDS011;5254;47.696;9.138;2022-07-10T11:15:38;6.20;;;3.13;;
10414;SDS011;5254;47.696;9.138;2022-07-10T11:18:07;4.68;;;3.20;;
10414;SDS011;5254;47.696;9.138;2022-07-10T11:20:34;4.00;;;3.17;;
10414;SDS011;5254;47.696;9.138;2022-07-10T11:25:42;5.10;;;3.00;;
10414;SDS011;5254;47.696;9.138;2022-07-10T11:28:25;4.15;;;3.15;;
10414;SDS011;5254;47.696;9.138;2022-07-10T11:31:01;4.38;;;3.10;;
10414;SDS011;5254;47.696;9.138;2022-07-10T11:33:27;6.60;;;4.32;;
10414;SDS011;5254;47.696;9.138;2022-07-10T11:35:53;4.82;;;3.40;;
10414;SDS011;5254;47.696;9.138;2022-07-10T11:38:20;5.53;;;3.17;;
10414;SDS011;5254;47.696;9.138;2022-07-10T11:40:50;4.50;;;3.42;;
10414;SDS011;5254;47.696;9.138;2022-07-10T11:43:17;7.10;;;4.22;;
10414;SDS011;5254;47.696;9.138;2022-07-10T11:45:47;5.43;;;3.60;;
10414;SDS011;5254;47.696;9.138;2022-07-10T11:48:16;4.43;;;3.20;;
10414;SDS011;5254;47.696;9.138;2022-07-10T11:50:43;5.00;;;3.65;;
10414;SDS011;5254;47.696;9.138;2022-07-10T11:53:09;4.60;;;3.33;;
10414;SDS011;5254;47.696;9.138;2022-07-10T11:55:34;5.15;;;3.58;;
10414;SDS011;5254;47.696;9.138;2022-07-10T11:58:12;4.90;;;3.00;;
10414;SDS011;5254;47.696;9.138;2022-07-10T12:00:42;3.83;;;3.10;;
10414;SDS011;5254;47.696;9.138;2022-07-10T12:03:18;4.25;;;2.95;;
10414;SDS011;5254;47.696;9.138;2022-07-10T12:05:45;5.55;;;3.13;;
10414;SDS011;5254;47.696;9.138;2022-07-10T12:08:11;5.10;;;3.10;;
10414;SDS011;5254;47.696;9.138;2022-07-10T12:10:40;5.95;;;3.72;;
10414;SDS011;5254;47.696;9.138;2022-07-10T12:13:14;6.30;;;3.20;;
10414;SDS011;5254;47.696;9.138;2022-07-10T12:15:41;10.52;;;3.28;;
10414;SDS011;5254;47.696;9.138;2022-07-10T12:18:09;4.40;;;3.05;;
10414;SDS011;5254;47.696;9.138;2022-07-10T12:20:45;4.05;;;2.90;;
10414;SDS011;5254;47.696;9.138;2022-07-10T12:23:15;6.60;;;3.10;;
10414;SDS011;5254;47.696;9.138;2022-07-10T12:25:43;4.28;;;2.90;;
10414;SDS011;5254;47.696;9.138;2022-07-10T12:28:10;5.45;;;3.67;;
10414;SDS011;5254;47.696;9.138;2022-07-10T12:30:43;4.53;;;2.60;;
10414;SDS011;5254;47.696;9.138;2022-07-10T12:33:16;5.40;;;3.10;;
10414;SDS011;5254;47.696;9.138;2022-07-10T12:35:55;3.40;;;2.60;;
10414;SDS011;5254;47.696;9.138;2022-07-10T12:38:25;3.60;;;2.65;;
10414;SDS011;5254;47.696;9.138;2022-07-10T12:40:51;4.25;;;2.90;;
10414;SDS011;5254;47.696;9.138;2022-07-10T12:43:33;4.13;;;2.83;;
10414;SDS011;5254;47.696;9.138;2022-07-10T12:48:41;4.30;;;2.70;;
10414;SDS011;5254;47.696;9.138;2022-07-10T12:51:25;5.28;;;3.00;;
10414;SDS011;5254;47.696;9.138;2022-07-10T12:53:53;4.38;;;2.90;;
10414;SDS011;5254;47.696;9.138;2022-07-10T12:56:29;3.80;;;2.67;;
10414;SDS011;5254;47.696;9.138;2022-07-10T12:58:58;4.25;;;2.90;;
10414;SDS011;5254;47.696;9.138;2022-07-10T13:01:28;5.13;;;3.17;;
10414;SDS011;5254;47.696;9.138;2022-07-10T13:04:03;3.72;;;2.60;;
10414;SDS011;5254;47.696;9.138;2022-07-10T13:06:30;4.30;;;2.65;;
10414;SDS011;5254;47.696;9.138;2022-07-10T13:08:57;4.95;;;3.28;;
10414;SDS011;5254;47.696;9.138;2022-07-10T13:11:22;4.60;;;2.70;;
10414;SDS011;5254;47.696;9.138;2022-07-10T13:13:48;3.95;;;2.80;;
10414;SDS011;5254;47.696;9.138;2022-07-10T13:16:14;3.75;;;2.55;;
10414;SDS011;5254;47.696;9.138;2022-07-10T13:18:43;4.28;;;3.10;;
10414;SDS011;5254;47.696;9.138;2022-07-10T13:21:10;3.67;;;2.50;;
10414;SDS011;5254;47.696;9.138;2022-07-10T13:23:36;3.10;;;2.50;;
10414;SDS011;5254;47.696;9.138;2022-07-10T13:26:03;3.63;;;2.50;;
10414;SDS011;5254;47.696;9.138;2022-07-10T13:28:31;4.60;;;2.70;;
10414;SDS011;5254;47.696;9.138;2022-07-10T13:30:58;5.05;;;2.80;;
10414;SDS011;5254;47.696;9.138;2022-07-10T13:33:24;3.92;;;2.40;;
10414;SDS011;5254;47.696;9.138;2022-07-10T13:35:50;3.47;;;2.42;;
10414;SDS011;5254;47.696;9.138;2022-07-10T13:38:17;4.75;;;2.90;;
10414;SDS011;5254;47.696;9.138;2022-07-10T13:40:44;3.70;;;2.40;;
10414;SDS011;5254;47.696;9.138;2022-07-10T13:43:11;3.63;;;2.42;;
10414;SDS011;5254;47.696;9.138;2022-07-10T13:45:37;4.30;;;2.67;;
10414;SDS011;5254;47.696;9.138;2022-07-10T13:48:11;3.10;;;2.08;;
10414;SDS011;5254;47.696;9.138;2022-07-10T13:50:38;5.97;;;2.80;;
10414;SDS011;5254;47.696;9.138;2022-07-10T13:53:05;4.28;;;2.60;;
10414;SDS011;5254;47.696;9.138;2022-07-10T13:55:30;3.47;;;2.25;;
10414;SDS011;5254;47.696;9.138;2022-07-10T13:57:58;3.13;;;2.20;;
10414;SDS011;5254;47.696;9.138;2022-07-10T14:00:24;3.70;;;2.20;;
10414;SDS011;5254;47.696;9.138;2022-07-10T14:02:49;4.03;;;2.80;;
10414;SDS011;5254;47.696;9.138;2022-07-10T14:05:15;4.13;;;2.25;;
10414;SDS011;5254;47.696;9.138;2022-07-10T14:07:41;4.10;;;2.45;;
10414;SDS011;5254;47.696;9.138;2022-07-10T14:10:07;3.50;;;2.40;;
10414;SDS011;5254;47.696;9.138;2022-07-10T14:12:33;3.63;;;2.50;;
10414;SDS011;5254;47.696;9.138;2022-07-10T14:14:59;3.58;;;2.50;;
10414;SDS011;5254;47.696;9.138;2022-07-10T14:17:25;3.38;;;2.30;;
10414;SDS011;5254;47.696;9.138;2022-07-10T14:19:53;5.40;;;3.17;;
10414;SDS011;5254;47.696;9.138;2022-07-10T14:22:18;4.30;;;2.58;;
10414;SDS011;5254;47.696;9.138;2022-07-10T14:24:44;3.58;;;2.63;;
10414;SDS011;5254;47.696;9.138;2022-07-10T14:27:10;3.70;;;2.47;;
10414;SDS011;5254;47.696;9.138;2022-07-10T14:29:35;4.40;;;2.50;;
10414;SDS011;5254;47.696;9.138;2022-07-10T14:32:01;3.80;;;2.60;;
10414;SDS011;5254;47.696;9.138;2022-07-10T14:34:27;3.83;;;2.53;;
10414;SDS011;5254;47.696;9.138;2022-07-10T14:36:54;3.60;;;2.53;;
10414;SDS011;5254;47.696;9.138;2022-07-10T14:39:20;4.45;;;2.50;;
10414;SDS011;5254;47.696;9.138;2022-07-10T14:41:46;4.88;;;2.50;;
10414;SDS011;5254;47.696;9.138;2022-07-10T14:44:12;3.58;;;2.50;;
10414;SDS011;5254;47.696;9.138;2022-07-10T14:46:37;3.67;;;2.58;;
10414;SDS011;5254;47.696;9.138;2022-07-10T14:49:03;4.22;;;2.88;;
10414;SDS011;5254;47.696;9.138;2022-07-10T14:51:29;4.13;;;2.50;;
10414;SDS011;5254;47.696;9.138;2022-07-10T14:53:55;4.57;;;2.72;;
10414;SDS011;5254;47.696;9.138;2022-07-10T14:56:21;3.92;;;2.60;;
10414;SDS011;5254;47.696;9.138;2022-07-10T14:58:48;4.55;;;2.60;;
10414;SDS011;5254;47.696;9.138;2022-07-10T15:01:15;4.28;;;2.50;;
10414;SDS011;5254;47.696;9.138;2022-07-10T15:03:41;3.78;;;2.45;;
10414;SDS011;5254;47.696;9.138;2022-07-10T15:06:07;3.85;;;2.72;;
10414;SDS011;5254;47.696;9.138;2022-07-10T15:08:33;4.05;;;2.63;;
10414;SDS011;5254;47.696;9.138;2022-07-10T15:10:59;4.05;;;2.67;;
10414;SDS011;5254;47.696;9.138;2022-07-10T15:13:26;5.47;;;3.28;;
10414;SDS011;5254;47.696;9.138;2022-07-10T15:15:52;4.32;;;2.67;;
10414;SDS011;5254;47.696;9.138;2022-07-10T15:18:18;5.55;;;2.90;;
10414;SDS011;5254;47.696;9.138;2022-07-10T15:20:44;3.72;;;2.70;;
10414;SDS011;5254;47.696;9.138;2022-07-10T15:23:10;5.57;;;3.40;;
10414;SDS011;5254;47.696;9.138;2022-07-10T15:25:36;5.05;;;2.55;;
10414;SDS011;5254;47.696;9.138;2022-07-10T15:28:05;3.65;;;2.42;;
10414;SDS011;5254;47.696;9.138;2022-07-10T15:30:34;4.35;;;2.90;;
10414;SDS011;5254;47.696;9.138;2022-07-10T15:33:01;4.47;;;2.88;;
10414;SDS011;5254;47.696;9.138;2022-07-10T15:35:28;4.88;;;2.88;;
10414;SDS011;5254;47.696;9.138;2022-07-10T15:37:54;4.43;;;3.00;;
10414;SDS011;5254;47.696;9.138;2022-07-10T15:40:20;4.65;;;2.70;;
10414;SDS011;5254;47.696;9.138;2022-07-10T15:42:45;4.72;;;2.80;;